Time;durP1;ratioP1;P1;durP2;ratioP2;P2;SDS_P1;SDS_P2;PMS_P1;PMS_P2;Temp;Humidity;BMP_temperature;BMP_pressure;BME280_temperature;BME280_humidity;BME280_pressure;Samples;Min_cycle;Max_cycle;Signal;HPM_P1;HPM_P2
2021/10/18 00:01:00;;;;;;;;;;;;;;;19.27;68.64;101585.75;5025734;28;1606;-54
2021/10/18 00:03:26;;;;;;;;;;;;;;;19.30;69.44;101595.41;5023324;28;1452;-57
2021/10/18 00:05:54;;;;;;;;;;;;;;;19.29;69.90;101582.97;5028443;28;1408;-55
2021/10/18 00:08:21;;;;;;;;;;;;;;;19.28;69.22;101600.03;5033303;28;1971;-55
2021/10/18 00:10:48;;;;;;;;;;;;;;;19.29;69.25;101588.34;5025828;28;1342;-55
2021/10/18 00:13:14;;;;;;;;;;;;;;;19.31;68.81;101591.75;5032717;28;1883;-55
2021/10/18 00:15:41;;;;;;;;;;;;;;;19.29;69.77;101593.69;5031488;28;1712;-57
2021/10/18 00:18:08;;;;;;;;;;;;;;;19.33;68.65;101583.59;5026509;28;1559;-57
2021/10/18 00:20:35;;;;;;;;;;;;;;;19.35;69.73;101593.22;5029538;28;1501;-56
2021/10/18 00:23:03;;;;;;;;;;;;;;;19.37;68.80;101591.28;5031921;28;1564;-57
2021/10/18 00:25:29;;;;;;;;;;;;;;;19.38;68.69;101597.53;5033518;28;1471;-53
2021/10/18 00:27:56;;;;;;;;;;;;;;;19.38;69.03;101593.00;5031393;28;1902;-55
2021/10/18 00:30:22;;;;;;;;;;;;;;;19.42;68.70;101605.19;5028986;28;1508;-57
2021/10/18 00:32:49;;;;;;;;;;;;;;;19.42;68.82;101588.25;5032200;28;1444;-54
2021/10/18 00:35:16;;;;;;;;;;;;;;;19.39;69.21;101604.56;5030225;28;1992;-57
2021/10/18 00:37:42;;;;;;;;;;;;;;;19.39;69.69;101600.06;5028313;28;1386;-55
2021/10/18 00:40:11;;;;;;;;;;;;;;;19.39;68.96;101594.69;5024557;28;1461;-57
2021/10/18 00:42:38;;;;;;;;;;;;;;;19.38;69.77;101586.78;5027752;28;1716;-57
2021/10/18 00:45:05;;;;;;;;;;;;;;;19.38;69.15;101593.00;5028878;28;1513;-54
2021/10/18 00:47:31;;;;;;;;;;;;;;;19.37;69.28;101596.63;5025188;28;1902;-54
2021/10/18 00:49:58;;;;;;;;;;;;;;;19.43;69.14;101598.84;5033455;28;1244;-55
2021/10/18 00:52:25;;;;;;;;;;;;;;;19.44;69.27;101603.25;5028543;28;1369;-58
2021/10/18 00:54:53;;;;;;;;;;;;;;;19.48;68.20;101611.94;5025966;28;1565;-54
2021/10/18 00:57:21;;;;;;;;;;;;;;;19.44;68.58;101603.25;5031942;28;1408;-58
2021/10/18 00:59:48;;;;;;;;;;;;;;;19.40;69.49;101598.25;5035178;28;1507;-58
2021/10/18 01:02:15;;;;;;;;;;;;;;;19.37;68.74;101585.91;5036194;28;1461;-57
2021/10/18 01:04:41;;;;;;;;;;;;;;;19.39;69.06;101586.66;5035460;28;1475;-57
2021/10/18 01:07:08;;;;;;;;;;;;;;;19.41;68.94;101583.84;5034719;28;1886;-54
2021/10/18 01:09:35;;;;;;;;;;;;;;;19.34;68.86;101586.16;5033489;28;1396;-58
2021/10/18 01:12:01;;;;;;;;;;;;;;;19.27;68.73;101569.66;5033252;28;1445;-55
2021/10/18 01:14:30;;;;;;;;;;;;;;;19.25;69.91;101585.03;5034494;28;1467;-57
2021/10/18 01:16:56;;;;;;;;;;;;;;;19.26;69.42;101578.69;5028262;28;1361;-55
2021/10/18 01:19:23;;;;;;;;;;;;;;;19.33;69.75;101584.44;5029703;28;1775;-55
2021/10/18 01:21:51;;;;;;;;;;;;;;;19.36;69.10;101584.22;5033818;28;1520;-57
2021/10/18 01:24:18;;;;;;;;;;;;;;;19.35;69.32;101593.22;5034046;28;1503;-57
2021/10/18 01:26:44;;;;;;;;;;;;;;;19.33;69.69;101588.97;5032789;28;1910;-55
2021/10/18 01:29:11;;;;;;;;;;;;;;;19.32;68.48;101577.38;5024392;28;1408;-55
2021/10/18 01:31:38;;;;;;;;;;;;;;;19.24;69.44;101595.88;5032003;28;1346;-54
2021/10/18 01:34:05;;;;;;;;;;;;;;;19.32;69.73;101577.38;5026647;28;1500;-55
2021/10/18 01:36:32;;;;;;;;;;;;;;;19.38;68.90;101597.53;5027837;28;1444;-58
2021/10/18 01:39:00;;;;;;;;;;;;;;;19.34;68.38;101575.44;5035022;28;1485;-55
2021/10/18 01:41:26;;;;;;;;;;;;;;;19.30;69.47;101595.41;5034717;28;1626;-58
2021/10/18 01:43:53;;;;;;;;;;;;;;;19.30;68.88;101575.75;5027675;28;1515;-54
2021/10/18 01:46:19;;;;;;;;;;;;;;;19.28;69.14;101573.22;5030113;28;1398;-53
2021/10/18 01:48:46;;;;;;;;;;;;;;;19.37;69.43;101585.06;5030592;28;1902;-54
2021/10/18 01:51:13;;;;;;;;;;;;;;;19.35;68.67;101579.81;5025832;28;1520;-57
2021/10/18 01:53:39;;;;;;;;;;;;;;;19.32;69.18;101573.81;5032171;28;1910;-57
2021/10/18 01:56:07;;;;;;;;;;;;;;;19.24;68.66;101586.00;5035608;28;1881;-58
2021/10/18 01:58:34;;;;;;;;;;;;;;;19.24;69.58;101598.56;5033743;28;1183;-55
2021/10/18 02:01:01;;;;;;;;;;;;;;;19.30;69.17;101576.66;5022828;28;1516;-57
2021/10/18 02:03:28;;;;;;;;;;;;;;;19.34;68.75;101596.88;5031465;28;1728;-57
2021/10/18 02:05:54;;;;;;;;;;;;;;;19.37;68.73;101585.06;5034254;28;1452;-55
2021/10/18 02:08:21;;;;;;;;;;;;;;;19.32;68.92;101582.75;5029676;28;1902;-54
2021/10/18 02:10:48;;;;;;;;;;;;;;;19.28;68.89;101578.59;5031990;28;1354;-57
2021/10/18 02:13:16;;;;;;;;;;;;;;;19.21;69.18;101590.75;5033701;28;1420;-54
2021/10/18 02:15:42;;;;;;;;;;;;;;;19.31;69.18;101577.50;5033823;28;1751;-57
2021/10/18 02:18:09;;;;;;;;;;;;;;;19.31;69.67;101570.28;5026283;28;1500;-55
2021/10/18 02:20:35;;;;;;;;;;;;;;;19.31;69.55;101580.19;5027551;28;1393;-54
2021/10/18 02:23:02;;;;;;;;;;;;;;;19.24;68.50;101580.66;5033260;28;1375;-55
2021/10/18 02:25:29;;;;;;;;;;;;;;;19.23;69.90;101576.25;5031884;28;1427;-58
2021/10/18 02:27:55;;;;;;;;;;;;;;;19.29;69.35;101580.28;5034622;28;1909;-57
2021/10/18 02:30:23;;;;;;;;;;;;;;;19.33;69.58;101584.44;5033614;28;1527;-54
2021/10/18 02:32:50;;;;;;;;;;;;;;;19.38;69.10;101592.16;5032222;28;1735;-57
2021/10/18 02:35:16;;;;;;;;;;;;;;;19.28;69.56;101581.28;5031844;28;1456;-55
2021/10/18 02:37:43;;;;;;;;;;;;;;;19.46;67.99;101584.38;5034122;28;1234;-57
2021/10/18 02:40:10;;;;;;;;;;;;;;;19.51;68.88;101592.06;5028630;28;1571;-54
2021/10/18 02:42:37;;;;;;;;;;;;;;;19.53;67.67;101574.00;5031667;28;1346;-57
2021/10/18 02:45:03;;;;;;;;;;;;;;;19.50;68.62;101576.91;5023630;28;1630;-57
2021/10/18 02:47:31;;;;;;;;;;;;;;;19.38;69.02;101587.63;5031342;28;1981;-58
2021/10/18 02:49:58;;;;;;;;;;;;;;;19.30;68.45;101573.97;5031648;28;1195;-57
2021/10/18 02:52:24;;;;;;;;;;;;;;;19.24;68.58;101587.84;5032861;28;1504;-55
2021/10/18 02:54:51;;;;;;;;;;;;;;;19.23;69.87;101589.66;5027375;28;1566;-57
2021/10/18 02:57:18;;;;;;;;;;;;;;;19.23;69.34;101604.88;5032299;28;1511;-55
2021/10/18 02:59:44;;;;;;;;;;;;;;;19.30;69.62;101584.69;5033600;28;1571;-57
2021/10/18 03:02:11;;;;;;;;;;;;;;;19.35;68.63;101592.38;5026553;28;1413;-55
2021/10/18 03:04:39;;;;;;;;;;;;;;;19.33;68.27;101587.13;5031973;28;1762;-54
2021/10/18 03:07:06;;;;;;;;;;;;;;;19.28;68.41;101579.44;5033927;28;1910;-57
2021/10/18 03:09:32;;;;;;;;;;;;;;;19.26;68.99;101586.75;5029235;28;1411;-55
2021/10/18 03:11:59;;;;;;;;;;;;;;;19.25;69.85;101592.22;5033083;28;1511;-54
2021/10/18 03:14:25;;;;;;;;;;;;;;;19.35;68.77;101590.53;5033783;28;1532;-55
2021/10/18 03:16:52;;;;;;;;;;;;;;;19.31;68.86;101586.38;5033830;28;1509;-54
2021/10/18 03:19:19;;;;;;;;;;;;;;;19.36;68.48;101600.31;5032221;28;1475;-54
2021/10/18 03:21:46;;;;;;;;;;;;;;;19.28;68.81;101576.75;5030204;28;1463;-57
2021/10/18 03:24:13;;;;;;;;;;;;;;;19.25;68.76;101581.50;5026202;28;1448;-57
2021/10/18 03:26:39;;;;;;;;;;;;;;;19.31;68.70;101581.03;5033208;28;1538;-57
2021/10/18 03:29:06;;;;;;;;;;;;;;;19.30;69.58;101584.69;5031865;28;1987;-57
2021/10/18 03:31:33;;;;;;;;;;;;;;;19.42;69.46;101580.22;5032834;28;1416;-54
2021/10/18 03:33:59;;;;;;;;;;;;;;;19.42;68.41;101593.63;5025029;28;1665;-57
2021/10/18 03:36:26;;;;;;;;;;;;;;;19.29;68.58;101593.69;5032426;28;1563;-57
2021/10/18 03:38:54;;;;;;;;;;;;;;;19.29;68.73;101591.00;5030940;28;1576;-57
2021/10/18 03:41:20;;;;;;;;;;;;;;;19.26;69.29;101593.94;5028294;28;1475;-57
2021/10/18 03:43:47;;;;;;;;;;;;;;;19.30;68.78;101579.34;5032598;28;1516;-54
2021/10/18 03:46:13;;;;;;;;;;;;;;;19.33;69.47;101575.53;5034151;28;1279;-55
2021/10/18 03:48:40;;;;;;;;;;;;;;;19.39;68.66;101583.97;5027548;28;1910;-54
2021/10/18 03:51:07;;;;;;;;;;;;;;;19.44;69.42;101583.63;5031661;28;1483;-57
2021/10/18 03:53:33;;;;;;;;;;;;;;;19.42;68.27;101610.56;5032504;28;1370;-57
2021/10/18 03:56:01;;;;;;;;;;;;;;;19.45;68.59;101598.75;5031696;28;1524;-57
2021/10/18 03:58:28;;;;;;;;;;;;;;;19.36;68.63;101605.69;5032470;28;1479;-56
2021/10/18 04:00:54;;;;;;;;;;;;;;;19.33;68.21;101584.44;5031141;28;1839;-56
2021/10/18 04:03:21;;;;;;;;;;;;;;;19.25;68.18;101585.03;5026627;28;1476;-55
2021/10/18 04:05:48;;;;;;;;;;;;;;;19.13;68.78;101587.78;5029318;28;1472;-54
2021/10/18 04:08:15;;;;;;;;;;;;;;;19.02;68.84;101585.91;5033050;28;1914;-61
2021/10/18 04:10:43;;;;;;;;;;;;;;;18.97;69.37;101583.59;5029454;28;1491;-59
2021/10/18 04:13:11;;;;;;;;;;;;;;;18.91;69.97;101584.03;5030499;28;1346;-55
2021/10/18 04:15:37;;;;;;;;;;;;;;;18.89;70.19;101572.59;5032463;28;1457;-59
2021/10/18 04:18:04;;;;;;;;;;;;;;;18.87;69.82;101586.09;5022232;28;1468;-58
2021/10/18 04:20:30;;;;;;;;;;;;;;;18.86;69.07;101580.84;5030513;28;1366;-58
2021/10/18 04:22:57;;;;;;;;;;;;;;;18.80;70.42;101587.53;5030352;28;1456;-56
2021/10/18 04:25:24;;;;;;;;;;;;;;;18.77;69.46;101589.56;5029930;28;1179;-56
2021/10/18 04:27:50;;;;;;;;;;;;;;;18.79;70.06;101595.66;5031048;28;1906;-55
2021/10/18 04:30:18;;;;;;;;;;;;;;;18.76;69.94;101587.84;5025910;28;1449;-59
2021/10/18 04:32:45;;;;;;;;;;;;;;;18.71;70.75;101593.53;5027873;28;1533;-58
2021/10/18 04:35:11;;;;;;;;;;;;;;;18.71;70.63;101603.41;5028551;28;1382;-54
2021/10/18 04:37:38;;;;;;;;;;;;;;;18.68;70.07;101601.78;5032346;28;1336;-59
2021/10/18 04:40:05;;;;;;;;;;;;;;;18.63;70.18;101591.44;5032411;28;1475;-62
2021/10/18 04:42:32;;;;;;;;;;;;;;;18.62;71.05;101594.22;5036378;28;1444;-59
2021/10/18 04:44:58;;;;;;;;;;;;;;;18.65;71.11;101610.91;5032063;28;1636;-60
2021/10/18 04:47:26;;;;;;;;;;;;;;;18.67;70.43;101603.63;5028017;28;1906;-59
2021/10/18 04:49:53;;;;;;;;;;;;;;;18.71;70.81;101614.97;5036486;28;1564;-61
2021/10/18 04:52:19;;;;;;;;;;;;;;;18.67;69.80;101608.97;5035380;28;1455;-57
2021/10/18 04:54:46;;;;;;;;;;;;;;;18.65;70.61;101604.72;5033076;28;1426;-62
2021/10/18 04:57:12;;;;;;;;;;;;;;;18.64;70.90;101608.34;5029010;28;1567;-57
2021/10/18 04:59:39;;;;;;;;;;;;;;;18.62;71.05;101618.31;5032941;28;1552;-62
2021/10/18 05:02:05;;;;;;;;;;;;;;;18.57;71.57;101618.66;5028539;28;1432;-62
2021/10/18 05:04:33;;;;;;;;;;;;;;;18.63;70.09;101626.25;5025789;28;1731;-57
2021/10/18 05:07:00;;;;;;;;;;;;;;;18.61;71.09;101617.47;5030200;28;1421;-57
2021/10/18 05:09:27;;;;;;;;;;;;;;;18.58;70.99;101619.50;5033944;28;1910;-57
2021/10/18 05:11:53;;;;;;;;;;;;;;;18.55;71.19;101620.59;5032284;28;1687;-61
2021/10/18 05:14:20;;;;;;;;;;;;;;;18.51;70.83;101616.44;5035196;28;1456;-57
2021/10/18 05:16:46;;;;;;;;;;;;;;;18.55;71.31;101625.09;5032476;28;1222;-61
2021/10/18 05:19:13;;;;;;;;;;;;;;;18.53;71.19;101621.69;5033948;28;1440;-61
2021/10/18 05:21:41;;;;;;;;;;;;;;;18.53;71.16;101622.53;5034708;28;1459;-59
2021/10/18 05:24:07;;;;;;;;;;;;;;;18.52;71.42;101628.84;5030918;28;1440;-61
2021/10/18 05:26:34;;;;;;;;;;;;;;;18.52;70.83;101633.34;5035346;28;1570;-60
2021/10/18 05:29:02;;;;;;;;;;;;;;;18.49;70.63;101635.28;5033492;28;1981;-60
2021/10/18 05:31:28;;;;;;;;;;;;;;;18.43;71.03;101641.09;5032833;28;1377;-55
2021/10/18 05:33:55;;;;;;;;;;;;;;;18.47;70.90;101644.41;5028193;28;1520;-60
2021/10/18 05:36:22;;;;;;;;;;;;;;;18.40;70.76;101648.47;5034966;28;1475;-55
2021/10/18 05:38:50;;;;;;;;;;;;;;;18.40;70.54;101652.03;5034853;28;1421;-59
2021/10/18 05:41:16;;;;;;;;;;;;;;;18.40;71.18;101653.84;5034622;28;1599;-60
2021/10/18 05:43:43;;;;;;;;;;;;;;;18.40;71.45;101657.41;5030108;28;1483;-55
2021/10/18 05:46:10;;;;;;;;;;;;;;;18.38;71.02;101658.44;5033648;28;1233;-60
2021/10/18 05:48:37;;;;;;;;;;;;;;;18.38;70.90;101669.16;5030635;28;1902;-60
2021/10/18 05:51:03;;;;;;;;;;;;;;;18.36;70.88;101669.25;5027964;28;1332;-56
2021/10/18 05:53:30;;;;;;;;;;;;;;;18.37;70.65;101660.28;5031870;28;1318;-58
2021/10/18 05:55:58;;;;;;;;;;;;;;;18.35;70.87;101659.53;5032788;28;1484;-60
2021/10/18 05:58:24;;;;;;;;;;;;;;;18.37;70.74;101686.22;5027963;28;1450;-55
2021/10/18 06:00:51;;;;;;;;;;;;;;;18.35;70.79;101674.75;5031328;28;1496;-56
2021/10/18 06:03:17;;;;;;;;;;;;;;;18.33;71.27;101674.00;5030698;28;1595;-60
2021/10/18 06:05:45;;;;;;;;;;;;;;;18.32;71.01;101680.31;5032789;28;1510;-60
2021/10/18 06:08:12;;;;;;;;;;;;;;;18.31;70.81;101682.13;5026187;28;1976;-61
2021/10/18 06:10:39;;;;;;;;;;;;;;;18.34;70.14;101675.69;5030889;28;1480;-55
2021/10/18 06:13:07;;;;;;;;;;;;;;;18.32;70.69;101669.59;5034527;28;1167;-61
2021/10/18 06:15:34;;;;;;;;;;;;;;;18.31;70.30;101673.25;5027266;28;1760;-57
2021/10/18 06:18:11;;;;;;;;;;;;;;;18.31;70.99;101666.06;5034281;28;1546;-61
2021/10/18 06:20:38;;;;;;;;;;;;;;;18.32;70.95;101680.31;5031753;28;1559;-57
2021/10/18 06:23:05;;;;;;;;;;;;;;;18.32;70.93;101680.31;5031432;28;1503;-55
2021/10/18 06:25:32;;;;;;;;;;;;;;;18.57;70.87;101695.50;5030418;28;1463;-60
2021/10/18 06:27:58;;;;;;;;;;;;;;;18.74;70.45;101675.50;5035180;28;1981;-56
2021/10/18 06:30:27;;;;;;;;;;;;;;;18.76;69.94;101677.13;5029843;28;1451;-55
2021/10/18 06:32:54;;;;;;;;;;;;;;;18.96;70.20;101683.75;5027537;28;1564;-60
2021/10/18 06:35:20;;;;;;;;;;;;;;;18.99;69.33;101674.63;5025686;28;1389;-58
2021/10/18 06:37:47;;;;;;;;;;;;;;;18.91;70.58;101685.91;5033499;28;1497;-56
2021/10/18 06:40:13;;;;;;;;;;;;;;;19.07;69.16;101681.09;5031677;28;1513;-57
2021/10/18 06:42:40;;;;;;;;;;;;;;;19.29;68.33;101682.19;5033551;28;1716;-59
2021/10/18 06:45:07;;;;;;;;;;;;;;;19.32;68.88;101686.47;5030537;28;1529;-56
2021/10/18 06:47:35;;;;;;;;;;;;;;;19.05;69.33;101684.88;5032567;28;1526;-59
2021/10/18 06:50:02;;;;;;;;;;;;;;;19.10;69.15;101677.38;5028707;28;1985;-60
2021/10/18 06:52:32;;;;;;;;;;;;;;;19.01;69.73;101680.72;5027567;28;1550;-58
2021/10/18 06:54:59;;;;;;;;;;;;;;;19.04;69.58;101677.81;5031947;28;1532;-57
2021/10/18 06:57:26;;;;;;;;;;;;;;;19.02;70.50;101682.41;5029055;28;1681;-57
2021/10/18 06:59:52;;;;;;;;;;;;;;;19.12;70.28;101688.81;5030237;28;1459;-59
2021/10/18 07:02:19;;;;;;;;;;;;;;;19.39;69.32;101672.47;5025979;28;1626;-56
2021/10/18 07:04:47;;;;;;;;;;;;;;;19.39;68.19;101683.22;5027352;28;1700;-56
2021/10/18 07:07:14;;;;;;;;;;;;;;;19.38;68.71;101686.03;5023636;28;1560;-57
2021/10/18 07:09:42;;;;;;;;;;;;;;;19.17;70.45;101699.19;5032470;28;1911;-58
2021/10/18 07:12:09;;;;;;;;;;;;;;;19.13;69.39;101690.53;5030141;28;1424;-57
2021/10/18 07:14:35;;;;;;;;;;;;;;;19.18;69.67;101695.53;5030367;28;1879;-55
2021/10/18 07:17:02;;;;;;;;;;;;;;;19.21;69.48;101700.69;5025938;28;1361;-57
2021/10/18 07:19:29;;;;;;;;;;;;;;;19.41;69.56;101693.81;5031586;28;1588;-57
2021/10/18 07:21:57;;;;;;;;;;;;;;;19.60;68.54;101699.50;5029142;28;1451;-55
2021/10/18 07:24:23;;;;;;;;;;;;;;;19.47;68.63;101696.88;5021095;28;1412;-57
2021/10/18 07:26:50;;;;;;;;;;;;;;;19.44;69.43;101693.59;5023256;28;1468;-57
2021/10/18 07:29:17;;;;;;;;;;;;;;;19.37;68.87;101687.84;5029389;28;1901;-55
2021/10/18 07:31:44;;;;;;;;;;;;;;;19.33;69.27;101689.03;5023251;28;1443;-55
2021/10/18 07:34:15;;;;;;;;;;;;;;;19.60;68.59;101695.97;5023310;28;1563;-57
2021/10/18 07:36:48;;;;;;;;;;;;;;;19.62;68.83;101697.56;5028144;28;1475;-57
2021/10/18 07:39:17;;;;;;;;;;;;;;;19.75;68.90;101691.28;5030096;28;1483;-56
2021/10/18 07:41:43;;;;;;;;;;;;;;;19.91;68.17;101690.97;5031441;28;1585;-56
2021/10/18 07:44:10;;;;;;;;;;;;;;;19.68;67.85;101697.09;5031003;28;1400;-57
2021/10/18 07:46:36;;;;;;;;;;;;;;;19.47;68.63;101696.88;5022772;28;1366;-55
2021/10/18 07:49:03;;;;;;;;;;;;;;;19.49;68.83;101707.50;5026223;28;2017;-55
2021/10/18 07:51:30;;;;;;;;;;;;;;;19.22;70.13;101705.94;5026663;28;1519;-59
2021/10/18 07:53:56;;;;;;;;;;;;;;;19.17;70.64;101696.53;5027413;28;1511;-58
2021/10/18 07:56:24;;;;;;;;;;;;;;;19.15;70.94;101726.13;5030363;28;1494;-55
2021/10/18 07:58:51;;;;;;;;;;;;;;;19.28;71.65;101705.47;5028464;28;1523;-60
2021/10/18 08:01:17;;;;;;;;;;;;;;;19.59;72.46;101703.16;5029586;28;1499;-55
2021/10/18 08:03:44;;;;;;;;;;;;;;;19.63;73.11;101709.16;5030059;28;1367;-58
2021/10/18 08:06:11;;;;;;;;;;;;;;;19.44;72.52;101710.56;5031889;28;1931;-58
2021/10/18 08:08:44;;;;;;;;;;;;;;;19.37;73.70;101711.13;5029439;28;1910;-56
2021/10/18 08:11:11;;;;;;;;;;;;;;;19.50;74.33;101713.72;5032104;28;1557;-55
2021/10/18 08:13:39;;;;;;;;;;;;;;;19.58;73.75;101722.94;5034673;28;1432;-55
2021/10/18 08:16:06;;;;;;;;;;;;;;;19.23;73.04;101701.44;5036560;28;1417;-55
2021/10/18 08:18:33;;;;;;;;;;;;;;;19.22;75.64;101716.66;5030928;28;1448;-62
2021/10/18 08:21:00;;;;;;;;;;;;;;;19.20;75.23;101710.56;5036897;28;1712;-57
2021/10/18 08:23:26;;;;;;;;;;;;;;;19.19;75.06;101708.00;5033893;28;1441;-62
2021/10/18 08:25:53;;;;;;;;;;;;;;;19.20;75.26;101690.91;5037372;28;1880;-61
2021/10/18 08:28:20;;;;;;;;;;;;;;;19.23;76.10;101706.78;5033243;28;1456;-62
2021/10/18 08:30:47;;;;;;;;;;;;;;;19.25;77.40;101720.94;5033629;28;1902;-57
2021/10/18 08:33:14;;;;;;;;;;;;;;;19.26;77.86;101717.31;5032348;28;1463;-56
2021/10/18 08:35:41;;;;;;;;;;;;;;;19.28;78.17;101718.03;5034285;28;1412;-58
2021/10/18 08:38:19;;;;;;;;;;;;;;;19.26;77.85;101703.88;5033069;28;1456;-57
2021/10/18 08:40:50;;;;;;;;;;;;;;;19.27;78.47;101706.44;5031546;28;1476;-56
2021/10/18 08:43:28;;;;;;;;;;;;;;;19.26;77.78;101707.41;5028420;28;1479;-59
2021/10/18 08:45:56;;;;;;;;;;;;;;;19.43;74.48;101706.13;5034684;28;1683;-58
2021/10/18 08:48:22;;;;;;;;;;;;;;;19.61;78.58;101716.47;5035822;28;1599;-55
2021/10/18 08:50:49;;;;;;;;;;;;;;;19.54;79.24;101720.59;5033317;28;1953;-56
2021/10/18 08:53:15;;;;;;;;;;;;;;;19.48;78.29;101728.13;5033322;28;1649;-58
2021/10/18 08:55:42;;;;;;;;;;;;;;;19.43;79.02;101713.34;5032208;28;1412;-60
2021/10/18 08:58:09;;;;;;;;;;;;;;;19.38;78.52;101720.91;5028565;28;1560;-58
2021/10/18 09:00:37;;;;;;;;;;;;;;;19.35;78.63;101713.06;5029331;28;1677;-55
2021/10/18 09:03:14;;;;;;;;;;;;;;;19.33;78.15;101725.72;5032053;28;1621;-57
2021/10/18 09:05:40;;;;;;;;;;;;;;;19.35;73.90;101713.06;5029983;28;1641;-55
2021/10/18 09:08:07;;;;;;;;;;;;;;;19.31;74.79;101708.91;5030515;28;1621;-57
2021/10/18 09:10:33;;;;;;;;;;;;;;;19.17;75.16;101728.69;5028592;28;1906;-55
2021/10/18 09:13:09;;;;;;;;;;;;;;;19.15;75.02;101717.22;5033158;28;1577;-58
2021/10/18 09:15:35;;;;;;;;;;;;;;;19.37;78.72;101719.16;5023917;28;1779;-55
2021/10/18 09:18:02;;;;;;;;;;;;;;;19.57;78.04;101718.50;5036407;28;1644;-56
2021/10/18 09:20:31;;;;;;;;;;;;;;;19.59;78.23;101726.47;5036367;28;1812;-57
2021/10/18 09:23:12;;;;;;;;;;;;;;;19.65;78.98;101723.31;5031912;28;1632;-55
2021/10/18 09:25:39;;;;;;;;;;;;;;;19.74;79.35;101719.97;5033664;28;1352;-55
2021/10/18 09:28:10;;;;;;;;;;;;;;;19.71;79.59;101713.94;5032291;28;1304;-55
2021/10/18 09:30:37;;;;;;;;;;;;;;;19.67;78.35;101721.34;5035240;28;1905;-60
2021/10/18 09:33:06;;;;;;;;;;;;;;;19.60;79.53;101706.72;5025608;28;1565;-55
2021/10/18 09:35:34;;;;;;;;;;;;;;;19.76;78.46;101714.50;5035299;28;1283;-55
2021/10/18 09:38:08;;;;;;;;;;;;;;;19.86;77.58;101710.97;5030230;28;1437;-55
2021/10/18 09:40:36;;;;;;;;;;;;;;;19.81;78.89;101701.56;5028965;28;1363;-56
2021/10/18 09:43:06;;;;;;;;;;;;;;;19.73;77.79;101704.81;5031493;28;1640;-56
2021/10/18 09:45:35;;;;;;;;;;;;;;;19.70;78.11;101712.25;5034076;28;1364;-58
2021/10/18 10:52:34;;;;;;;;;;;;;;;19.64;78.66;101658.06;5031836;28;1230;-59
2021/10/18 10:55:17;;;;;;;;;;;;;;;19.50;78.35;101650.22;5027704;28;2067;-59
2021/10/18 10:57:45;;;;;;;;;;;;;;;19.36;77.96;101643.22;5031294;28;1458;-56
2021/10/18 11:00:29;;;;;;;;;;;;;;;19.37;77.54;101658.31;5027300;28;1305;-56
2021/10/18 11:03:11;;;;;;;;;;;;;;;19.57;77.85;101656.81;5024337;28;1484;-57
2021/10/18 11:05:52;;;;;;;;;;;;;;;19.44;78.53;101648.00;5030404;28;1666;-62
2021/10/18 11:08:29;;;;;;;;;;;;;;;19.42;77.88;101655.31;5031017;28;1747;-59
2021/10/18 11:10:56;;;;;;;;;;;;;;;19.51;78.58;101646.53;5027517;28;1906;-69
2021/10/18 11:13:23;;;;;;;;;;;;;;;19.51;78.69;101645.69;5030531;28;1314;-59
2021/10/18 11:15:50;;;;;;;;;;;;;;;19.53;78.69;101649.13;5025972;28;1681;-58
2021/10/18 11:18:23;;;;;;;;;;;;;;;19.33;75.59;101654.16;5032473;28;1786;-57
2021/10/18 11:20:50;;;;;;;;;;;;;;;19.11;76.13;101643.34;5030032;28;1588;-58
2021/10/18 11:23:17;;;;;;;;;;;;;;;19.03;77.49;101641.25;5030667;28;1414;-61
2021/10/18 11:25:45;;;;;;;;;;;;;;;18.92;78.44;101644.75;5023993;28;1537;-61
2021/10/18 11:28:12;;;;;;;;;;;;;;;18.93;77.77;101634.88;5029627;28;1711;-61
2021/10/18 11:30:40;;;;;;;;;;;;;;;19.31;78.46;101649.91;5031320;28;1910;-56
2021/10/18 11:33:08;;;;;;;;;;;;;;;19.09;77.39;101624.69;5031673;28;1328;-56
2021/10/18 11:35:35;;;;;;;;;;;;;;;19.03;77.28;101631.38;5031239;28;1724;-57
2021/10/18 11:38:02;;;;;;;;;;;;;;;19.01;77.89;101625.28;5025083;28;1420;-57
2021/10/18 11:40:30;;;;;;;;;;;;;;;19.03;77.58;101630.53;5025850;28;1432;-62
2021/10/18 11:42:58;;;;;;;;;;;;;;;19.04;77.67;101642.97;5029441;28;1506;-57
2021/10/18 11:45:26;;;;;;;;;;;;;;;18.93;77.69;101634.88;5029849;28;1592;-56
2021/10/18 11:48:03;;;;;;;;;;;;;;;19.03;77.98;101609.94;5027898;28;1751;-55
2021/10/18 11:50:29;;;;;;;;;;;;;;;19.04;77.86;101605.44;5031887;28;1909;-56
2021/10/18 11:52:57;;;;;;;;;;;;;;;19.02;78.47;101615.41;5025571;28;1409;-58
2021/10/18 11:55:25;;;;;;;;;;;;;;;19.05;78.06;101607.97;5028325;28;1765;-57
2021/10/18 11:57:53;;;;;;;;;;;;;;;19.11;78.41;101605.81;5029683;28;1446;-56
2021/10/18 12:00:21;;;;;;;;;;;;;;;19.16;78.77;101631.31;5033908;28;1251;-56
2021/10/18 12:02:48;;;;;;;;;;;;;;;19.04;78.03;101611.66;5027713;28;1509;-56
2021/10/18 12:05:17;;;;;;;;;;;;;;;19.06;78.36;101615.06;5030875;28;1418;-56
2021/10/18 12:07:45;;;;;;;;;;;;;;;19.15;77.15;101612.66;5022288;28;1727;-55
2021/10/18 12:10:12;;;;;;;;;;;;;;;19.17;78.34;101611.56;5030746;28;1981;-56
2021/10/18 12:12:39;;;;;;;;;;;;;;;19.15;78.11;101601.94;5032887;28;1402;-55
2021/10/18 12:15:06;;;;;;;;;;;;;;;19.26;77.72;101604.66;5031985;28;1680;-57
2021/10/18 12:17:34;;;;;;;;;;;;;;;19.21;77.56;101598.78;5030414;28;1386;-58
2021/10/18 12:20:01;;;;;;;;;;;;;;;19.19;77.34;101619.50;5033658;28;1449;-58
2021/10/18 12:22:29;;;;;;;;;;;;;;;19.16;77.75;101619.72;5032166;28;1695;-59
2021/10/18 12:25:00;;;;;;;;;;;;;;;19.19;77.37;101603.41;5033527;28;1347;-59
2021/10/18 12:27:27;;;;;;;;;;;;;;;19.27;77.11;101604.53;5033383;28;1395;-56
2021/10/18 12:29:54;;;;;;;;;;;;;;;19.18;77.28;101607.06;5028386;28;1971;-56
2021/10/18 12:32:20;;;;;;;;;;;;;;;19.13;77.61;101615.44;5033322;28;1512;-59
2021/10/18 12:34:47;;;;;;;;;;;;;;;19.22;77.74;101606.72;5026981;28;1567;-58
2021/10/18 12:37:15;;;;;;;;;;;;;;;19.22;77.42;101603.19;5030686;28;1545;-58
2021/10/18 12:39:47;;;;;;;;;;;;;;;19.21;78.38;101617.56;5027125;28;1588;-58
2021/10/18 12:42:15;;;;;;;;;;;;;;;19.19;78.36;101611.47;5031314;28;1271;-54
2021/10/18 12:44:43;;;;;;;;;;;;;;;19.31;77.50;101621.25;5033130;28;1532;-57
2021/10/18 12:47:11;;;;;;;;;;;;;;;19.26;77.19;101610.88;5033090;28;1874;-57
2021/10/18 12:49:38;;;;;;;;;;;;;;;19.27;77.47;101614.41;5032245;28;1364;-56
2021/10/18 12:52:05;;;;;;;;;;;;;;;19.26;76.67;101600.16;5023212;28;1967;-58
2021/10/18 12:54:39;;;;;;;;;;;;;;;19.17;77.79;101611.56;5035007;28;1391;-56
2021/10/18 12:57:08;;;;;;;;;;;;;;;19.14;77.70;101603.78;5036460;28;1537;-56
2021/10/18 12:59:35;;;;;;;;;;;;;;;19.17;76.93;101605.34;5031135;28;1540;-57
2021/10/18 13:02:15;;;;;;;;;;;;;;;19.17;78.20;101616.09;5028196;28;1987;-56
2021/10/18 13:04:42;;;;;;;;;;;;;;;19.22;77.04;101609.41;5033999;28;1600;-56
2021/10/18 13:07:08;;;;;;;;;;;;;;;19.25;77.78;101621.72;5027570;28;1429;-55
2021/10/18 13:09:35;;;;;;;;;;;;;;;19.14;77.58;101640.44;5032966;28;1421;-56
2021/10/18 13:12:01;;;;;;;;;;;;;;;19.16;78.59;101625.09;5036197;28;1968;-56
2021/10/18 13:14:29;;;;;;;;;;;;;;;19.17;77.70;101630.34;5032474;28;1502;-57
2021/10/18 13:16:55;;;;;;;;;;;;;;;19.41;77.89;101627.63;5032006;28;1326;-59
2021/10/18 13:19:22;;;;;;;;;;;;;;;19.36;77.19;101624.44;5030768;28;1422;-56
2021/10/18 13:21:48;;;;;;;;;;;;;;;19.29;77.68;101620.50;5037248;28;1537;-56
2021/10/18 13:24:15;;;;;;;;;;;;;;;19.26;76.75;101623.44;5034791;28;1720;-57
2021/10/18 13:26:42;;;;;;;;;;;;;;;19.21;76.88;101614.88;5035880;28;1393;-55
2021/10/18 13:29:08;;;;;;;;;;;;;;;19.24;78.09;101628.06;5036509;28;1636;-58
2021/10/18 13:31:36;;;;;;;;;;;;;;;19.21;77.49;101628.28;5030171;28;1902;-56
2021/10/18 13:34:04;;;;;;;;;;;;;;;19.16;77.05;101628.66;5028714;28;1388;-54
2021/10/18 13:36:30;;;;;;;;;;;;;;;19.11;77.05;101619.22;5027644;28;1723;-58
2021/10/18 13:39:01;;;;;;;;;;;;;;;19.12;77.57;101623.59;5031019;28;1447;-55
2021/10/18 13:41:27;;;;;;;;;;;;;;;19.17;77.05;101632.16;5030095;28;1354;-55
2021/10/18 13:43:54;;;;;;;;;;;;;;;19.13;77.41;101631.53;5030440;28;1600;-55
2021/10/18 13:46:20;;;;;;;;;;;;;;;19.11;78.12;101644.22;5022048;28;1636;-56
2021/10/18 13:48:48;;;;;;;;;;;;;;;19.19;77.99;101640.97;5034540;28;1672;-60
2021/10/18 13:51:15;;;;;;;;;;;;;;;19.25;76.91;101638.66;5035284;28;1971;-57
2021/10/18 13:53:42;;;;;;;;;;;;;;;19.27;77.90;101633.19;5034348;28;1373;-58